Time;durP1;ratioP1;P1;durP2;ratioP2;P2;SDS_P1;SDS_P2;PMS_P1;PMS_P2;Temp;Humidity;BMP_temperature;BMP_pressure;BME280_temperature;BME280_humidity;BME280_pressure;Samples;Min_cycle;Max_cycle;Signal;HPM_P1;HPM_P2
2022/04/12 00:00:10;;;;;;;7.45;3.13;;;;;;;;;;5010699;28;20034;-39
2022/04/12 00:02:36;;;;;;;8.27;3.55;;;;;;;;;;5011016;28;20120;-39
2022/04/12 00:05:03;;;;;;;8.95;3.92;;;;;;;;;;5011240;28;20029;-39
2022/04/12 00:07:30;;;;;;;9.88;3.75;;;;;;;;;;5010938;28;20042;-38
2022/04/12 00:09:57;;;;;;;10.77;4.10;;;;;;;;;;5011101;28;20423;-37
2022/04/12 00:12:24;;;;;;;10.85;5.35;;;;;;;;;;5010596;28;20510;-38
2022/04/12 00:14:51;;;;;;;14.00;5.88;;;;;;;;;;5010499;28;20026;-38
2022/04/12 00:20:04;;;;;;;15.23;6.45;;;;;;;;;;4992689;28;20130;-38
2022/04/12 00:22:31;;;;;;;17.55;5.97;;;;;;;;;;4992155;28;20034;-38
2022/04/12 00:25:00;;;;;;;17.92;6.43;;;;;;;;;;4991149;28;20061;-40
2022/04/12 00:27:27;;;;;;;16.25;6.75;;;;;;;;;;5011136;28;20689;-38
2022/04/12 00:29:55;;;;;;;19.50;6.80;;;;;;;;;;5011739;28;20084;-38
2022/04/12 00:32:22;;;;;;;19.13;6.60;;;;;;;;;;5011788;28;20033;-38
2022/04/12 00:34:49;;;;;;;19.30;8.05;;;;;;;;;;4994189;28;20046;-38
2022/04/12 00:37:16;;;;;;;18.85;8.40;;;;;;;;;;4992947;28;20065;-39
2022/04/12 00:39:43;;;;;;;19.50;8.80;;;;;;;;;;5012273;28;20030;-39
2022/04/12 00:42:10;;;;;;;21.33;8.82;;;;;;;;;;5011470;28;20026;-38
2022/04/12 00:44:37;;;;;;;17.13;7.97;;;;;;;;;;5011357;28;20052;-38
2022/04/12 00:47:04;;;;;;;15.52;7.45;;;;;;;;;;4993071;28;20442;-39
2022/04/12 00:49:31;;;;;;;19.30;8.50;;;;;;;;;;5011098;28;20407;-38
2022/04/12 00:51:59;;;;;;;17.10;8.18;;;;;;;;;;4992432;28;20036;-38
2022/04/12 00:54:27;;;;;;;21.15;7.53;;;;;;;;;;5010414;28;20487;-39
2022/04/12 00:56:55;;;;;;;18.15;7.07;;;;;;;;;;5009817;28;20056;-38
2022/04/12 00:59:23;;;;;;;11.48;6.47;;;;;;;;;;4993055;28;20037;-38
2022/04/12 01:01:50;;;;;;;16.30;6.93;;;;;;;;;;5010788;28;20387;-38
2022/04/12 01:04:18;;;;;;;16.50;7.00;;;;;;;;;;5010580;28;20033;-39
2022/04/12 01:06:45;;;;;;;13.95;6.18;;;;;;;;;;5018436;28;20373;-37
2022/04/12 01:09:12;;;;;;;10.75;5.95;;;;;;;;;;5011068;28;20128;-37
2022/04/12 01:11:48;;;;;;;16.10;5.93;;;;;;;;;;5010853;28;20735;-37
2022/04/12 01:14:18;;;;;;;16.92;6.40;;;;;;;;;;4995375;28;20124;-38
2022/04/12 01:16:45;;;;;;;16.30;6.88;;;;;;;;;;4991804;28;20029;-39
2022/04/12 01:19:12;;;;;;;16.85;5.30;;;;;;;;;;5010776;28;20036;-37
2022/04/12 01:21:43;;;;;;;14.90;4.53;;;;;;;;;;4992442;28;20026;-38
2022/04/12 01:24:10;;;;;;;14.45;5.25;;;;;;;;;;5009679;28;20456;-38
2022/04/12 01:26:38;;;;;;;12.32;5.05;;;;;;;;;;4991475;28;20046;-37
2022/04/12 01:29:04;;;;;;;16.30;5.35;;;;;;;;;;5011265;28;20076;-40
2022/04/12 01:31:31;;;;;;;13.55;5.35;;;;;;;;;;5009762;28;20025;-40
2022/04/12 01:33:58;;;;;;;12.98;4.82;;;;;;;;;;5010027;28;20084;-41
2022/04/12 01:36:25;;;;;;;9.95;4.95;;;;;;;;;;5009111;28;20108;-39
2022/04/12 01:38:52;;;;;;;13.30;4.68;;;;;;;;;;5010152;28;20029;-40
2022/04/12 01:41:19;;;;;;;12.25;4.40;;;;;;;;;;5010449;28;20034;-40
2022/04/12 01:43:46;;;;;;;9.02;4.18;;;;;;;;;;5009807;28;20416;-40
2022/04/12 01:46:13;;;;;;;12.07;4.50;;;;;;;;;;5009836;28;20026;-39
2022/04/12 01:48:40;;;;;;;20.55;4.28;;;;;;;;;;5006016;28;20376;-38
2022/04/12 01:51:07;;;;;;;14.57;4.55;;;;;;;;;;5009889;28;20495;-41
2022/04/12 01:53:36;;;;;;;16.65;4.13;;;;;;;;;;5010044;28;20034;-39
2022/04/12 01:56:03;;;;;;;10.98;3.90;;;;;;;;;;5010925;28;20471;-39
2022/04/12 01:58:32;;;;;;;11.85;4.55;;;;;;;;;;5013145;28;20097;-39
2022/04/12 02:01:00;;;;;;;15.80;3.67;;;;;;;;;;5014970;28;20038;-41
2022/04/12 02:03:26;;;;;;;13.73;4.15;;;;;;;;;;4997272;28;20033;-39
2022/04/12 02:05:54;;;;;;;14.65;3.83;;;;;;;;;;5011966;28;20040;-40
2022/04/12 02:08:22;;;;;;;8.35;3.50;;;;;;;;;;5015122;28;20029;-39
2022/04/12 02:10:49;;;;;;;10.57;3.90;;;;;;;;;;5015819;28;20046;-40
2022/04/12 02:13:19;;;;;;;10.27;3.08;;;;;;;;;;5015066;28;20040;-40
2022/04/12 02:15:46;;;;;;;13.23;3.78;;;;;;;;;;5015226;28;20289;-39
2022/04/12 02:18:13;;;;;;;9.50;4.30;;;;;;;;;;5015462;28;20061;-40
2022/04/12 02:20:39;;;;;;;11.38;4.03;;;;;;;;;;5014460;28;20523;-40
2022/04/12 02:23:07;;;;;;;12.38;3.63;;;;;;;;;;4986314;28;20074;-40
2022/04/12 02:25:34;;;;;;;9.38;3.65;;;;;;;;;;5021957;28;20041;-41
2022/04/12 02:28:01;;;;;;;9.18;3.10;;;;;;;;;;5023661;28;20052;-42
2022/04/12 02:30:27;;;;;;;7.57;3.33;;;;;;;;;;5014642;28;20024;-41
2022/04/12 02:32:54;;;;;;;8.77;2.90;;;;;;;;;;5013575;28;20476;-39
2022/04/12 02:35:21;;;;;;;9.00;3.45;;;;;;;;;;5015065;28;20480;-39
2022/04/12 02:37:48;;;;;;;9.80;3.33;;;;;;;;;;5014480;28;20492;-40
2022/04/12 02:40:17;;;;;;;9.50;3.45;;;;;;;;;;5013401;28;20387;-42
2022/04/12 02:42:44;;;;;;;8.20;3.65;;;;;;;;;;5013352;28;20463;-43
2022/04/12 02:45:11;;;;;;;7.20;3.10;;;;;;;;;;5013927;28;20108;-41
2022/04/12 02:47:38;;;;;;;9.57;2.92;;;;;;;;;;5011323;28;20121;-40
2022/04/12 02:50:05;;;;;;;6.50;2.13;;;;;;;;;;5013138;28;20171;-42
2022/04/12 02:52:32;;;;;;;6.25;2.70;;;;;;;;;;5012931;28;20032;-39
2022/04/12 02:54:59;;;;;;;8.70;3.13;;;;;;;;;;5013705;28;20384;-41
2022/04/12 02:57:26;;;;;;;6.05;2.83;;;;;;;;;;5014186;28;20471;-41
2022/04/12 02:59:53;;;;;;;5.60;2.80;;;;;;;;;;5014408;28;20022;-41
2022/04/12 03:02:20;;;;;;;4.70;2.35;;;;;;;;;;5015134;28;20018;-41
2022/04/12 03:04:47;;;;;;;6.55;2.38;;;;;;;;;;5014565;28;20391;-41
2022/04/12 03:07:15;;;;;;;3.85;2.13;;;;;;;;;;5014703;28;20045;-41
2022/04/12 03:09:42;;;;;;;5.40;2.78;;;;;;;;;;5014738;28;20468;-41
2022/04/12 03:12:09;;;;;;;9.32;3.00;;;;;;;;;;5014400;28;20101;-41
2022/04/12 03:14:36;;;;;;;7.60;2.33;;;;;;;;;;5014317;28;20045;-41
2022/04/12 03:17:03;;;;;;;4.88;2.60;;;;;;;;;;5014085;28;20065;-41
2022/04/12 03:19:30;;;;;;;5.85;2.40;;;;;;;;;;5014438;28;20046;-41
2022/04/12 03:21:57;;;;;;;4.15;2.10;;;;;;;;;;5014274;28;20038;-41
2022/04/12 03:24:24;;;;;;;6.85;2.17;;;;;;;;;;5014609;28;20377;-41
2022/04/12 03:26:51;;;;;;;4.72;2.03;;;;;;;;;;5013651;28;20133;-41
2022/04/12 03:29:18;;;;;;;5.68;1.90;;;;;;;;;;5014066;28;20022;-41
2022/04/12 03:31:45;;;;;;;5.50;1.85;;;;;;;;;;5014141;28;20034;-41
2022/04/12 03:34:12;;;;;;;5.13;1.80;;;;;;;;;;5014160;28;20033;-41
2022/04/12 03:36:39;;;;;;;6.05;1.98;;;;;;;;;;5013604;28;20472;-41
2022/04/12 03:39:10;;;;;;;6.03;2.08;;;;;;;;;;4996055;28;20044;-41
2022/04/12 03:41:37;;;;;;;4.35;1.90;;;;;;;;;;5013914;28;20108;-41
2022/04/12 03:44:04;;;;;;;4.95;1.98;;;;;;;;;;5014306;28;20032;-41
2022/04/12 03:46:31;;;;;;;7.70;2.10;;;;;;;;;;5013920;28;20080;-41
2022/04/12 03:48:58;;;;;;;3.92;1.70;;;;;;;;;;5013435;28;20022;-41
2022/04/12 03:51:25;;;;;;;4.65;2.00;;;;;;;;;;5014062;28;20408;-41
2022/04/12 03:53:52;;;;;;;5.95;2.05;;;;;;;;;;5014074;28;20029;-41
2022/04/12 03:56:19;;;;;;;5.20;2.28;;;;;;;;;;5013142;28;20371;-41
2022/04/12 03:58:46;;;;;;;6.82;1.90;;;;;;;;;;5013530;28;20037;-41
2022/04/12 04:01:13;;;;;;;3.63;1.60;;;;;;;;;;5013822;28;20084;-41
2022/04/12 04:03:40;;;;;;;2.30;1.40;;;;;;;;;;5013992;28;20076;-41
2022/04/12 04:06:07;;;;;;;2.40;1.58;;;;;;;;;;5013055;28;20030;-41
2022/04/12 04:08:34;;;;;;;3.17;1.38;;;;;;;;;;5014014;28;20440;-41
2022/04/12 04:11:01;;;;;;;2.35;1.55;;;;;;;;;;5013151;28;20032;-41
2022/04/12 04:13:30;;;;;;;5.40;1.98;;;;;;;;;;5013580;28;20583;-41
2022/04/12 04:15:57;;;;;;;3.72;1.70;;;;;;;;;;5012635;28;20100;-41
2022/04/12 04:18:24;;;;;;;3.50;1.60;;;;;;;;;;5013840;28;20064;-41
2022/04/12 04:20:51;;;;;;;4.25;1.50;;;;;;;;;;5012297;28;20065;-41
2022/04/12 04:23:18;;;;;;;4.75;1.38;;;;;;;;;;5013440;28;20116;-41
2022/04/12 04:25:45;;;;;;;3.00;1.50;;;;;;;;;;5013461;28;20084;-41
2022/04/12 04:28:12;;;;;;;2.10;1.30;;;;;;;;;;5012772;28;20034;-41
2022/04/12 04:30:44;;;;;;;5.50;1.40;;;;;;;;;;5013602;28;20484;-41
2022/04/12 04:33:14;;;;;;;2.35;1.38;;;;;;;;;;5012713;28;20034;-41
2022/04/12 04:35:41;;;;;;;2.28;1.60;;;;;;;;;;5012816;28;20082;-41
2022/04/12 04:38:08;;;;;;;3.72;1.65;;;;;;;;;;5013055;28;20488;-41
2022/04/12 04:40:35;;;;;;;2.20;1.35;;;;;;;;;;5012472;28;20025;-41
2022/04/12 04:43:02;;;;;;;5.28;1.58;;;;;;;;;;5013204;28;20397;-41
2022/04/12 04:45:29;;;;;;;3.38;1.25;;;;;;;;;;5012709;28;20064;-41
2022/04/12 04:47:58;;;;;;;2.85;1.25;;;;;;;;;;5012932;28;20116;-41
2022/04/12 04:50:26;;;;;;;1.98;1.20;;;;;;;;;;5012177;28;20065;-41
2022/04/12 04:52:53;;;;;;;2.53;1.33;;;;;;;;;;5013224;28;20022;-41
2022/04/12 04:55:20;;;;;;;3.05;1.50;;;;;;;;;;5012547;28;20044;-41
2022/04/12 04:57:48;;;;;;;2.88;1.33;;;;;;;;;;5012782;28;20429;-41
2022/04/12 05:00:19;;;;;;;1.85;1.20;;;;;;;;;;5013321;28;20389;-41
2022/04/12 05:02:46;;;;;;;2.05;1.10;;;;;;;;;;5011874;28;20037;-41
2022/04/12 05:05:13;;;;;;;3.83;1.48;;;;;;;;;;5012748;28;20369;-41
2022/04/12 05:07:42;;;;;;;4.75;1.30;;;;;;;;;;5012651;28;20030;-41
2022/04/12 05:10:13;;;;;;;2.72;1.30;;;;;;;;;;5012979;28;20079;-41
2022/04/12 05:12:40;;;;;;;2.20;1.42;;;;;;;;;;5011792;28;20033;-41
2022/04/12 05:15:07;;;;;;;1.60;1.02;;;;;;;;;;5012908;28;20056;-41
2022/04/12 05:17:34;;;;;;;2.15;1.10;;;;;;;;;;5011940;28;20472;-41
2022/04/12 05:20:01;;;;;;;1.73;1.00;;;;;;;;;;5012669;28;20030;-41
2022/04/12 05:22:28;;;;;;;3.70;1.45;;;;;;;;;;5012045;28;20399;-41
2022/04/12 05:24:55;;;;;;;3.33;1.40;;;;;;;;;;5011880;28;20125;-41
2022/04/12 05:27:22;;;;;;;4.07;1.48;;;;;;;;;;5012626;28;20099;-41
2022/04/12 05:29:49;;;;;;;1.92;0.90;;;;;;;;;;5012643;28;20057;-41
2022/04/12 05:32:16;;;;;;;1.58;1.23;;;;;;;;;;5011481;28;20018;-41
2022/04/12 05:34:45;;;;;;;2.53;1.25;;;;;;;;;;5012290;28;20080;-41
2022/04/12 05:37:12;;;;;;;1.17;1.00;;;;;;;;;;5012024;28;20037;-41
2022/04/12 05:39:39;;;;;;;1.98;1.08;;;;;;;;;;5011979;28;20479;-41
2022/04/12 05:42:06;;;;;;;4.00;1.10;;;;;;;;;;5012251;28;20033;-41
2022/04/12 05:44:33;;;;;;;1.90;1.08;;;;;;;;;;5012483;28;20120;-41
2022/04/12 05:47:03;;;;;;;2.35;1.20;;;;;;;;;;5011533;28;20034;-41
2022/04/12 05:49:31;;;;;;;2.78;1.05;;;;;;;;;;5012404;28;20038;-41
2022/04/12 05:51:58;;;;;;;2.70;1.35;;;;;;;;;;5011874;28;20095;-41
2022/04/12 05:54:25;;;;;;;1.45;0.90;;;;;;;;;;5012103;28;20599;-41
2022/04/12 05:56:52;;;;;;;1.55;1.00;;;;;;;;;;5012431;28;20033;-41
2022/04/12 05:59:19;;;;;;;2.65;1.20;;;;;;;;;;5011372;28;20510;-41
2022/04/12 06:01:46;;;;;;;1.60;1.00;;;;;;;;;;5011666;28;20030;-41
2022/04/12 06:04:13;;;;;;;1.85;0.90;;;;;;;;;;5012021;28;20022;-41
2022/04/12 06:06:41;;;;;;;1.70;0.90;;;;;;;;;;5011577;28;20052;-41
2022/04/12 06:09:08;;;;;;;1.25;1.00;;;;;;;;;;5011941;28;20717;-41
2022/04/12 06:11:35;;;;;;;2.72;0.90;;;;;;;;;;5012378;28;20022;-41
2022/04/12 06:14:04;;;;;;;1.48;0.90;;;;;;;;;;5011676;28;20022;-41
2022/04/12 06:16:31;;;;;;;1.65;1.05;;;;;;;;;;5011505;28;20047;-41
2022/04/12 06:18:58;;;;;;;1.55;0.80;;;;;;;;;;5012201;28;20056;-41
2022/04/12 06:21:25;;;;;;;1.88;1.20;;;;;;;;;;5011704;28;20101;-41
2022/04/12 06:23:52;;;;;;;1.48;0.90;;;;;;;;;;5011181;28;20109;-41
2022/04/12 06:26:19;;;;;;;1.23;0.77;;;;;;;;;;5011918;28;20492;-41
2022/04/12 06:28:46;;;;;;;1.33;0.98;;;;;;;;;;5012033;28;20095;-41
2022/04/12 06:31:13;;;;;;;2.55;0.90;;;;;;;;;;5149369;23;20267;-42
2022/04/12 06:33:40;;;;;;;1.10;0.82;;;;;;;;;;4973182;28;20544;-44
2022/04/12 06:36:07;;;;;;;2.38;1.23;;;;;;;;;;4972009;28;20118;-44
2022/04/12 06:38:34;;;;;;;0.90;0.70;;;;;;;;;;4973006;28;20034;-44
2022/04/12 06:41:01;;;;;;;1.25;0.80;;;;;;;;;;4972073;28;20019;-45
2022/04/12 06:43:28;;;;;;;1.55;0.98;;;;;;;;;;4972435;28;20026;-44
2022/04/12 06:45:55;;;;;;;1.95;1.20;;;;;;;;;;4976477;28;20385;-44
2022/04/12 06:48:22;;;;;;;1.10;0.80;;;;;;;;;;4976387;28;20362;-44
2022/04/12 06:50:48;;;;;;;2.72;1.05;;;;;;;;;;4975382;28;20128;-44
2022/04/12 06:53:15;;;;;;;1.35;0.80;;;;;;;;;;4976170;28;20027;-44
2022/04/12 06:55:42;;;;;;;1.83;0.90;;;;;;;;;;4975435;28;20027;-44
2022/04/12 06:58:09;;;;;;;0.85;0.68;;;;;;;;;;4976137;28;20026;-44
2022/04/12 07:00:38;;;;;;;1.52;0.80;;;;;;;;;;4976272;28;20023;-45
2022/04/12 07:03:05;;;;;;;2.45;1.00;;;;;;;;;;4974996;28;20066;-44
2022/04/12 07:05:32;;;;;;;0.93;0.70;;;;;;;;;;4976097;28;20027;-44
2022/04/12 07:07:59;;;;;;;2.08;0.88;;;;;;;;;;4975308;28;20492;-44
2022/04/12 07:10:26;;;;;;;1.15;0.70;;;;;;;;;;4975878;28;20019;-44
2022/04/12 07:12:56;;;;;;;1.38;0.75;;;;;;;;;;4975607;28;20027;-45
2022/04/12 07:15:23;;;;;;;0.93;0.70;;;;;;;;;;4974864;28;20030;-44
2022/04/12 07:17:50;;;;;;;1.23;0.65;;;;;;;;;;4975332;28;20031;-44
2022/04/12 07:20:17;;;;;;;1.60;0.95;;;;;;;;;;4975289;28;20023;-44
2022/04/12 07:22:44;;;;;;;1.75;0.70;;;;;;;;;;4975721;28;20027;-44
2022/04/12 07:25:11;;;;;;;1.38;0.60;;;;;;;;;;4974742;28;20033;-44
2022/04/12 07:27:38;;;;;;;1.60;0.77;;;;;;;;;;4975776;28;20033;-44
2022/04/12 07:30:06;;;;;;;1.25;0.70;;;;;;;;;;4975286;28;20543;-45
2022/04/12 07:32:33;;;;;;;1.25;0.70;;;;;;;;;;4987024;28;20101;-45
2022/04/12 07:35:00;;;;;;;1.95;0.70;;;;;;;;;;4994041;28;20038;-44
2022/04/12 07:37:26;;;;;;;1.10;0.60;;;;;;;;;;4994216;28;20105;-44
2022/04/12 07:39:56;;;;;;;1.23;0.80;;;;;;;;;;4994611;28;20093;-44
2022/04/12 07:42:23;;;;;;;2.90;0.70;;;;;;;;;;4994667;28;20031;-44
2022/04/12 07:44:50;;;;;;;0.85;0.50;;;;;;;;;;4993951;28;20026;-44
2022/04/12 07:47:17;;;;;;;2.45;0.77;;;;;;;;;;4994044;28;20100;-45
2022/04/12 07:49:44;;;;;;;0.88;0.70;;;;;;;;;;4994434;28;20022;-45
2022/04/12 07:52:11;;;;;;;1.25;0.60;;;;;;;;;;4994519;28;20085;-46
2022/04/12 07:54:38;;;;;;;0.70;0.50;;;;;;;;;;4993400;28;20412;-46
2022/04/12 07:57:05;;;;;;;0.80;0.60;;;;;;;;;;4993745;28;20085;-45
2022/04/12 07:59:32;;;;;;;1.10;0.60;;;;;;;;;;4993787;28;20437;-46
2022/04/12 08:01:59;;;;;;;3.20;0.95;;;;;;;;;;4994000;28;20019;-45
2022/04/12 08:04:25;;;;;;;2.70;0.60;;;;;;;;;;4994327;28;20126;-46
2022/04/12 08:06:52;;;;;;;1.38;0.55;;;;;;;;;;4993603;28;20102;-45
2022/04/12 08:09:19;;;;;;;1.52;0.60;;;;;;;;;;4994438;28;20023;-46
2022/04/12 08:11:46;;;;;;;1.00;0.70;;;;;;;;;;4993481;28;20030;-45
2022/04/12 08:14:13;;;;;;;0.55;0.50;;;;;;;;;;4993944;28;20026;-45
2022/04/12 08:16:40;;;;;;;2.08;0.80;;;;;;;;;;4976288;28;20030;-45
2022/04/12 08:19:07;;;;;;;1.20;0.60;;;;;;;;;;4994144;28;20389;-45
2022/04/12 08:21:35;;;;;;;0.73;0.50;;;;;;;;;;4993268;28;20027;-46
2022/04/12 08:24:02;;;;;;;0.82;0.52;;;;;;;;;;4993511;28;20105;-46
2022/04/12 08:26:29;;;;;;;0.88;0.60;;;;;;;;;;4993701;28;20388;-45
2022/04/12 08:28:57;;;;;;;1.17;0.68;;;;;;;;;;4994038;28;20030;-45
2022/04/12 08:31:24;;;;;;;0.57;0.47;;;;;;;;;;4992609;28;20058;-45
2022/04/12 08:33:51;;;;;;;0.63;0.55;;;;;;;;;;4993092;28;20026;-45
2022/04/12 08:36:21;;;;;;;0.65;0.52;;;;;;;;;;4993035;28;20042;-45
2022/04/12 08:38:49;;;;;;;1.65;0.57;;;;;;;;;;4993812;28;20037;-45
2022/04/12 08:41:17;;;;;;;1.10;0.50;;;;;;;;;;4992771;28;20425;-45
2022/04/12 08:43:45;;;;;;;0.60;0.50;;;;;;;;;;4992871;28;20030;-45
2022/04/12 08:46:12;;;;;;;0.32;0.32;;;;;;;;;;4993556;28;20118;-45
2022/04/12 08:48:40;;;;;;;1.13;0.57;;;;;;;;;;4992638;28;20030;-45
2022/04/12 08:51:07;;;;;;;0.75;0.40;;;;;;;;;;4992950;28;20535;-45
2022/04/12 08:53:34;;;;;;;1.05;0.50;;;;;;;;;;4993190;28;20029;-45
2022/04/12 08:56:02;;;;;;;1.20;0.70;;;;;;;;;;4993358;28;20030;-45
2022/04/12 08:58:29;;;;;;;0.70;0.50;;;;;;;;;;4992849;28;20018;-45
2022/04/12 09:00:56;;;;;;;1.23;0.50;;;;;;;;;;4993198;28;20026;-46
2022/04/12 09:03:23;;;;;;;0.50;0.45;;;;;;;;;;4992894;28;20069;-45
2022/04/12 09:05:52;;;;;;;0.93;0.60;;;;;;;;;;4992606;28;20030;-45
2022/04/12 09:08:25;;;;;;;0.93;0.32;;;;;;;;;;4992630;28;20053;-45
2022/04/12 09:10:59;;;;;;;0.70;0.50;;;;;;;;;;4975049;28;20030;-45
2022/04/12 09:13:27;;;;;;;0.77;0.40;;;;;;;;;;4993215;28;20045;-45
2022/04/12 09:15:54;;;;;;;0.77;0.40;;;;;;;;;;4992308;28;20030;-45
2022/04/12 09:18:34;;;;;;;0.77;0.55;;;;;;;;;;4992995;28;20031;-45
2022/04/12 09:21:20;;;;;;;1.05;0.50;;;;;;;;;;4975604;28;20096;-45
2022/04/12 09:23:49;;;;;;;0.40;0.30;;;;;;;;;;4992082;28;20432;-45
2022/04/12 09:26:16;;;;;;;0.55;0.47;;;;;;;;;;4994161;28;20101;-45
2022/04/12 09:28:44;;;;;;;2.80;0.45;;;;;;;;;;4994112;28;20022;-42
2022/04/12 09:31:15;;;;;;;0.63;0.40;;;;;;;;;;4992596;28;20110;-45
2022/04/12 09:33:43;;;;;;;1.35;0.50;;;;;;;;;;4992045;28;20033;-45
2022/04/12 09:36:10;;;;;;;1.00;0.60;;;;;;;;;;4974675;28;20451;-45
2022/04/12 09:38:38;;;;;;;3.13;0.85;;;;;;;;;;4992268;28;20025;-44
2022/04/12 09:41:12;;;;;;;1.55;0.52;;;;;;;;;;4992021;28;20030;-45
2022/04/12 09:44:16;;;;;;;2.92;0.57;;;;;;;;;;4994790;28;20033;-43
2022/04/12 09:46:43;;;;;;;1.27;0.52;;;;;;;;;;4952678;28;20057;-45
2022/04/12 09:49:10;;;;;;;3.10;0.75;;;;;;;;;;5011690;28;20051;-43
2022/04/12 09:51:37;;;;;;;2.35;0.80;;;;;;;;;;5010910;28;20068;-45
2022/04/12 09:54:06;;;;;;;7.45;0.93;;;;;;;;;;5012016;28;20026;-44
2022/04/12 09:56:34;;;;;;;2.20;0.90;;;;;;;;;;5011202;28;20041;-45
2022/04/12 09:59:03;;;;;;;4.10;1.30;;;;;;;;;;5011660;28;20026;-43
2022/04/12 10:01:31;;;;;;;10.38;1.00;;;;;;;;;;5011027;28;20034;-44
2022/04/12 10:04:01;;;;;;;8.88;1.45;;;;;;;;;;5016466;28;20042;-43
2022/04/12 10:06:29;;;;;;;4.55;1.10;;;;;;;;;;5011876;28;20453;-42
2022/04/12 10:09:05;;;;;;;5.90;0.93;;;;;;;;;;5011569;28;20097;-42
2022/04/12 10:11:33;;;;;;;6.35;1.00;;;;;;;;;;5011929;28;20030;-42
2022/04/12 10:14:02;;;;;;;8.60;1.13;;;;;;;;;;5011051;28;20085;-42
2022/04/12 10:16:30;;;;;;;4.53;0.80;;;;;;;;;;5011595;28;20058;-43
2022/04/12 10:18:59;;;;;;;4.13;0.90;;;;;;;;;;4999067;28;20395;-45
2022/04/12 10:21:26;;;;;;;3.30;0.88;;;;;;;;;;5035636;28;20037;-45
2022/04/12 10:23:57;;;;;;;2.88;0.80;;;;;;;;;;5034658;28;20506;-44
2022/04/12 10:26:26;;;;;;;4.68;1.17;;;;;;;;;;5035438;28;20030;-44
2022/04/12 10:29:00;;;;;;;3.40;1.20;;;;;;;;;;5028483;28;20041;-43
2022/04/12 10:31:31;;;;;;;2.45;0.90;;;;;;;;;;5023556;28;20099;-42
2022/04/12 10:34:14;;;;;;;6.88;1.10;;;;;;;;;;5035349;28;20172;-43
2022/04/12 10:36:56;;;;;;;8.82;1.02;;;;;;;;;;5034507;28;20487;-42
2022/04/12 10:39:29;;;;;;;5.57;2.13;;;;;;;;;;5035745;28;20036;-42
2022/04/12 10:41:58;;;;;;;4.10;1.30;;;;;;;;;;5031543;28;20029;-43
2022/04/12 10:44:25;;;;;;;4.90;0.80;;;;;;;;;;5019065;28;20038;-44
2022/04/12 10:46:52;;;;;;;2.47;1.10;;;;;;;;;;5035043;28;20498;-45
2022/04/12 10:49:22;;;;;;;7.47;1.25;;;;;;;;;;5034653;28;20057;-45
2022/04/12 10:51:59;;;;;;;2.92;1.25;;;;;;;;;;5034696;28;20491;-45
2022/04/12 10:54:29;;;;;;;3.45;0.93;;;;;;;;;;5034761;28;20053;-45
2022/04/12 10:57:35;;;;;;;2.28;0.73;;;;;;;;;;5033816;28;20036;-45
2022/04/12 11:00:08;;;;;;;5.32;0.88;;;;;;;;;;4935228;29;20028;-45
2022/04/12 11:02:39;;;;;;;4.45;1.15;;;;;;;;;;4934185;29;20035;-45
2022/04/12 11:05:07;;;;;;;2.08;0.90;;;;;;;;;;4990599;28;20064;-45
2022/04/12 11:07:35;;;;;;;2.47;1.00;;;;;;;;;;5034049;28;20038;-44
2022/04/12 11:10:20;;;;;;;3.03;1.17;;;;;;;;;;5034226;28;20017;-44
2022/04/12 11:12:48;;;;;;;5.32;1.02;;;;;;;;;;5034402;28;20017;-43
2022/04/12 11:15:22;;;;;;;7.55;1.00;;;;;;;;;;5033580;28;20102;-46
2022/04/12 11:17:49;;;;;;;10.32;1.65;;;;;;;;;;5034421;28;20026;-48
2022/04/12 11:20:23;;;;;;;7.13;1.40;;;;;;;;;;5033531;28;20072;-45
2022/04/12 11:22:57;;;;;;;598.42;19.75;;;;;;;;;;5034206;28;20020;-49
2022/04/12 11:25:26;;;;;;;31.35;2.63;;;;;;;;;;5016309;28;20021;-46
2022/04/12 11:27:57;;;;;;;51.08;3.88;;;;;;;;;;5015367;28;20033;-48
2022/04/12 11:30:25;;;;;;;32.30;2.92;;;;;;;;;;5033955;28;20052;-48
2022/04/12 11:32:56;;;;;;;38.20;3.78;;;;;;;;;;5032818;28;20057;-48
2022/04/12 11:35:26;;;;;;;31.92;3.85;;;;;;;;;;5033793;28;20026;-47
2022/04/12 11:37:53;;;;;;;27.92;3.45;;;;;;;;;;5033741;28;20483;-42
2022/04/12 11:40:20;;;;;;;11.02;1.50;;;;;;;;;;5033049;28;20387;-43
2022/04/12 11:42:47;;;;;;;14.98;1.60;;;;;;;;;;5033855;28;20025;-43
2022/04/12 11:45:14;;;;;;;7.30;1.23;;;;;;;;;;5033081;28;20029;-43
2022/04/12 11:47:44;;;;;;;11.32;1.88;;;;;;;;;;5033838;28;20030;-43
2022/04/12 11:50:20;;;;;;;13.00;1.52;;;;;;;;;;5033231;28;20382;-42
2022/04/12 11:52:47;;;;;;;8.85;1.50;;;;;;;;;;5033325;28;20410;-42
2022/04/12 11:55:14;;;;;;;5.05;1.33;;;;;;;;;;5033509;28;20025;-43
2022/04/12 11:57:41;;;;;;;8.38;1.77;;;;;;;;;;5032798;28;20052;-43
2022/04/12 12:00:08;;;;;;;36.00;2.55;;;;;;;;;;5033665;28;20053;-46
2022/04/12 12:02:41;;;;;;;35.97;4.28;;;;;;;;;;5032894;28;20060;-46
2022/04/12 12:05:09;;;;;;;34.72;3.80;;;;;;;;;;5032590;28;20022;-46
2022/04/12 12:07:36;;;;;;;37.10;4.25;;;;;;;;;;5033326;28;20037;-47
2022/04/12 12:10:09;;;;;;;31.67;4.38;;;;;;;;;;5032303;28;20036;-44
2022/04/12 12:12:37;;;;;;;33.88;4.20;;;;;;;;;;5032894;28;20491;-46
2022/04/12 12:15:12;;;;;;;32.75;3.70;;;;;;;;;;5032494;28;20464;-45
2022/04/12 12:17:40;;;;;;;13.55;2.53;;;;;;;;;;5032831;28;20052;-45
2022/04/12 12:20:07;;;;;;;23.33;2.65;;;;;;;;;;5033355;28;20056;-46
2022/04/12 12:22:41;;;;;;;13.18;2.28;;;;;;;;;;5032237;28;20026;-46
2022/04/12 12:25:09;;;;;;;20.23;2.53;;;;;;;;;;5015269;28;20030;-44
2022/04/12 12:27:37;;;;;;;18.17;2.50;;;;;;;;;;5032396;28;20422;-45
2022/04/12 12:30:09;;;;;;;12.50;1.42;;;;;;;;;;5032751;28;20033;-44
2022/04/12 12:32:36;;;;;;;8.05;1.95;;;;;;;;;;5032325;28;20507;-45
2022/04/12 12:35:05;;;;;;;6.28;1.15;;;;;;;;;;5032872;28;20112;-44
2022/04/12 12:37:32;;;;;;;3.17;1.00;;;;;;;;;;5031872;28;20107;-44
2022/04/12 12:39:59;;;;;;;4.45;0.90;;;;;;;;;;5032895;28;20041;-44
2022/04/12 12:42:35;;;;;;;6.15;0.95;;;;;;;;;;5031915;28;20021;-45
2022/04/12 12:45:11;;;;;;;6.43;0.60;;;;;;;;;;5032056;28;20033;-45
2022/04/12 12:47:40;;;;;;;5.07;0.75;;;;;;;;;;5032838;28;20124;-44
2022/04/12 12:50:09;;;;;;;3.50;0.60;;;;;;;;;;5014696;28;20434;-45
2022/04/12 12:52:36;;;;;;;1.55;0.50;;;;;;;;;;5031754;28;20140;-45
2022/04/12 12:55:06;;;;;;;1.80;0.60;;;;;;;;;;5032590;28;20033;-44
2022/04/12 12:57:40;;;;;;;1.25;0.50;;;;;;;;;;5031740;28;20095;-44
2022/04/12 13:00:09;;;;;;;1.58;0.65;;;;;;;;;;5031823;28;20076;-44
2022/04/12 13:02:36;;;;;;;3.22;0.98;;;;;;;;;;5032050;28;20021;-44
2022/04/12 13:05:05;;;;;;;1.92;0.60;;;;;;;;;;5032383;28;20434;-44
2022/04/12 13:07:36;;;;;;;1.88;0.65;;;;;;;;;;5031785;28;20482;-44
2022/04/12 13:10:21;;;;;;;3.30;0.75;;;;;;;;;;5031573;28;20026;-43
2022/04/12 13:12:49;;;;;;;1.85;0.52;;;;;;;;;;5032195;28;20406;-44
2022/04/12 13:15:16;;;;;;;4.20;0.85;;;;;;;;;;5031898;28;20087;-44
2022/04/12 13:17:44;;;;;;;5.57;0.77;;;;;;;;;;5032170;28;20372;-44
2022/04/12 13:20:12;;;;;;;8.25;0.65;;;;;;;;;;5031445;28;20391;-43
2022/04/12 13:22:39;;;;;;;10.00;1.30;;;;;;;;;;5032190;28;20025;-43
2022/04/12 13:25:06;;;;;;;12.15;1.42;;;;;;;;;;5031936;28;20030;-44
2022/04/12 13:27:34;;;;;;;19.17;1.95;;;;;;;;;;5031679;28;20044;-44
2022/04/12 13:30:01;;;;;;;10.10;1.80;;;;;;;;;;5031924;28;20432;-43
2022/04/12 13:32:28;;;;;;;11.13;1.27;;;;;;;;;;5012916;28;20404;-43
2022/04/12 13:34:55;;;;;;;14.88;1.70;;;;;;;;;;5032113;28;20057;-43
2022/04/12 13:37:23;;;;;;;12.55;1.50;;;;;;;;;;5031588;28;20121;-43
2022/04/12 13:39:51;;;;;;;14.23;1.52;;;;;;;;;;5031473;28;20022;-43
2022/04/12 13:42:18;;;;;;;16.55;1.35;;;;;;;;;;5032118;28;20100;-43
2022/04/12 13:44:52;;;;;;;9.15;1.80;;;;;;;;;;5031120;28;20029;-44
2022/04/12 13:47:19;;;;;;;23.38;1.80;;;;;;;;;;5031835;28;20040;-43
2022/04/12 13:49:45;;;;;;;18.70;1.92;;;;;;;;;;5029842;28;20080;-42
2022/04/12 13:52:12;;;;;;;14.13;1.60;;;;;;;;;;5016832;28;20040;-42
2022/04/12 13:54:39;;;;;;;17.73;1.50;;;;;;;;;;5013215;28;20030;-42
2022/04/12 13:57:06;;;;;;;8.25;1.63;;;;;;;;;;5014993;28;20052;-42
2022/04/12 13:59:33;;;;;;;9.43;1.42;;;;;;;;;;5015003;28;20041;-43
2022/04/12 14:02:00;;;;;;;8.02;1.23;;;;;;;;;;5015468;28;20041;-44
2022/04/12 14:04:27;;;;;;;10.25;1.20;;;;;;;;;;5014395;28;20026;-43
2022/04/12 14:06:55;;;;;;;6.30;1.13;;;;;;;;;;5014317;28;20041;-43
2022/04/12 14:09:22;;;;;;;8.23;1.20;;;;;;;;;;5015061;28;20045;-43
2022/04/12 14:11:51;;;;;;;6.95;1.23;;;;;;;;;;5014340;28;20404;-43
2022/04/12 14:14:19;;;;;;;9.63;1.27;;;;;;;;;;5014582;28;20048;-44
2022/04/12 14:16:46;;;;;;;8.07;0.85;;;;;;;;;;5014191;28;20475;-43
2022/04/12 14:19:14;;;;;;;9.63;0.80;;;;;;;;;;5013994;28;20034;-43
2022/04/12 14:21:41;;;;;;;12.07;1.27;;;;;;;;;;5014180;28;20014;-45
2022/04/12 14:24:09;;;;;;;9.32;1.10;;;;;;;;;;5015051;28;20041;-42
2022/04/12 14:26:36;;;;;;;8.32;1.35;;;;;;;;;;5013944;28;20053;-42
2022/04/12 14:29:04;;;;;;;5.68;0.95;;;;;;;;;;5014490;28;20022;-43
2022/04/12 14:31:32;;;;;;;5.28;0.98;;;;;;;;;;5014310;28;20046;-43
2022/04/12 14:33:58;;;;;;;11.38;1.10;;;;;;;;;;5013741;28;20046;-44
2022/04/12 14:36:25;;;;;;;7.40;0.93;;;;;;;;;;5014518;28;20042;-43
2022/04/12 14:38:52;;;;;;;6.40;1.20;;;;;;;;;;5014095;28;20056;-44
2022/04/12 14:41:20;;;;;;;6.47;1.10;;;;;;;;;;5013204;28;20105;-43
2022/04/12 14:43:47;;;;;;;12.35;1.23;;;;;;;;;;5013054;28;20095;-43
2022/04/12 14:46:14;;;;;;;6.07;0.95;;;;;;;;;;5014628;28;20041;-43
2022/04/12 14:48:41;;;;;;;11.88;1.35;;;;;;;;;;5013581;28;20034;-43